createdAt,value
2018-04-14T00:02:07.382Z,10.20
2018-04-14T00:04:33.391Z,10.20
2018-04-14T00:07:00.127Z,10.20
2018-04-14T00:09:26.921Z,10.20
2018-04-14T00:11:52.917Z,10.20
2018-04-14T00:14:18.897Z,10.30
2018-04-14T00:16:45.631Z,10.30
2018-04-14T00:19:14.495Z,10.30
2018-04-14T00:21:40.488Z,10.30
2018-04-14T00:24:06.470Z,10.40
2018-04-14T00:26:32.461Z,10.40
2018-04-14T00:28:58.546Z,10.40
2018-04-14T00:31:25.665Z,10.40
2018-04-14T00:33:52.472Z,10.40
2018-04-14T00:36:19.210Z,10.30
2018-04-14T00:38:45.930Z,10.30
2018-04-14T00:41:11.895Z,10.30
2018-04-14T00:43:37.897Z,10.20
2018-04-14T00:46:04.627Z,10.20
2018-04-14T00:48:31.334Z,10.30
2018-04-14T00:50:57.324Z,10.20
2018-04-14T00:53:35.709Z,10.30
2018-04-14T00:56:01.724Z,10.30
2018-04-14T00:58:27.705Z,10.20
2018-04-14T01:00:53.797Z,10.20
2018-04-14T01:03:19.773Z,10.20
2018-04-14T01:05:46.507Z,10.10
2018-04-14T01:08:13.294Z,10.10
2018-04-14T01:10:39.277Z,10.10
2018-04-14T01:13:05.246Z,10.10
2018-04-14T01:15:31.244Z,10.10
2018-04-14T01:17:57.277Z,10.10
2018-04-14T01:20:25.367Z,10.00
2018-04-14T01:22:51.379Z,10.00
2018-04-14T01:25:17.450Z,10.00
2018-04-14T01:27:43.495Z,10.00
2018-04-14T01:30:09.530Z,10.00
2018-04-14T01:32:35.559Z,10.00
2018-04-14T01:35:01.531Z,10.00
2018-04-14T01:37:27.575Z,10.00
2018-04-14T01:39:53.611Z,10.00
2018-04-14T01:42:19.621Z,10.00
2018-04-14T01:44:45.668Z,10.00
2018-04-14T01:47:11.682Z,10.00
2018-04-14T01:49:37.755Z,10.00
2018-04-14T01:52:03.786Z,10.00
2018-04-14T01:54:29.845Z,10.00
2018-04-14T01:56:55.841Z,10.00
2018-04-14T01:59:21.919Z,9.90
2018-04-14T02:01:47.933Z,9.90
2018-04-14T02:04:14.722Z,9.80
2018-04-14T02:06:40.732Z,9.80
2018-04-14T02:09:08.816Z,9.80
2018-04-14T02:11:34.910Z,9.80
2018-04-14T02:14:00.952Z,9.80
2018-04-14T02:16:26.973Z,9.80
2018-04-14T02:18:53.026Z,9.80
2018-04-14T02:21:21.938Z,9.80
2018-04-14T02:23:47.961Z,9.80
2018-04-14T02:26:13.980Z,9.80
2018-04-14T02:28:39.973Z,9.80
2018-04-14T02:31:06.801Z,9.80
2018-04-14T02:33:32.866Z,9.80
2018-04-14T02:35:58.891Z,9.80
2018-04-14T02:38:25.432Z,9.80
2018-04-14T02:40:51.463Z,9.90
2018-04-14T02:43:17.478Z,9.90
2018-04-14T02:45:43.470Z,9.90
2018-04-14T02:48:09.463Z,9.90
2018-04-14T02:50:36.193Z,9.90
2018-04-14T02:53:02.934Z,9.80
2018-04-14T02:55:29.646Z,9.80
2018-04-14T02:57:55.655Z,9.80
2018-04-14T03:00:21.653Z,9.80
2018-04-14T03:02:47.660Z,9.80
2018-04-14T03:05:13.713Z,9.80
2018-04-14T03:07:39.706Z,9.80
2018-04-14T03:10:05.744Z,9.80
2018-04-14T03:12:31.808Z,9.80
2018-04-14T03:14:57.795Z,9.80
2018-04-14T03:17:23.802Z,9.80
2018-04-14T03:19:49.823Z,9.80
2018-04-14T03:22:15.819Z,9.80
2018-04-14T03:24:41.823Z,9.80
2018-04-14T03:27:08.565Z,9.70
2018-04-14T03:29:34.647Z,9.70
2018-04-14T03:32:00.635Z,9.80
2018-04-14T03:34:26.646Z,9.70
2018-04-14T03:36:52.640Z,9.70
2018-04-14T03:39:19.675Z,9.80
2018-04-14T03:41:46.418Z,9.90
2018-04-14T03:44:12.420Z,9.90
2018-04-14T03:46:39.131Z,9.90
2018-04-14T03:49:05.218Z,9.80
2018-04-14T03:51:31.215Z,9.90
2018-04-14T03:53:57.966Z,9.80
2018-04-14T03:56:23.936Z,9.80
2018-04-14T03:58:49.922Z,9.80
2018-04-14T04:01:15.933Z,9.90
2018-04-14T04:03:41.921Z,9.90
2018-04-14T04:06:07.928Z,9.90
2018-04-14T04:08:35.593Z,9.90
2018-04-14T04:11:02.389Z,9.90
2018-04-14T04:13:28.379Z,9.90
2018-04-14T04:15:54.347Z,10.00
2018-04-14T04:18:32.878Z,10.00
2018-04-14T04:21:11.961Z,10.00
2018-04-14T04:23:50.338Z,9.90
2018-04-14T04:26:16.326Z,10.00
2018-04-14T04:28:43.049Z,10.00
2018-04-14T04:31:09.128Z,10.00
2018-04-14T04:33:35.123Z,10.10
2018-04-14T04:36:01.174Z,10.10
2018-04-14T04:38:27.903Z,10.10
2018-04-14T04:40:53.900Z,10.10
2018-04-14T04:43:20.756Z,10.10
2018-04-14T04:45:47.559Z,10.10
2018-04-14T04:48:14.506Z,10.10
2018-04-14T04:50:41.305Z,10.10
2018-04-14T04:53:07.294Z,10.10
2018-04-14T04:55:33.282Z,10.20
2018-04-14T04:58:06.958Z,10.20
2018-04-14T05:00:33.066Z,10.20
2018-04-14T05:02:59.045Z,10.20
2018-04-14T05:05:25.853Z,10.20
2018-04-14T05:07:52.607Z,10.20
2018-04-14T05:10:19.404Z,10.20
2018-04-14T05:12:45.390Z,10.20
2018-04-14T05:15:11.363Z,10.20
2018-04-14T05:17:38.221Z,10.30
2018-04-14T05:20:05.081Z,10.20
2018-04-14T05:22:31.070Z,10.20
2018-04-14T05:24:57.873Z,10.30
2018-04-14T05:27:23.848Z,10.20
2018-04-14T05:29:49.923Z,10.30
2018-04-14T05:32:15.922Z,10.30
2018-04-14T05:34:45.214Z,10.30
2018-04-14T05:37:11.269Z,10.30
2018-04-14T05:39:37.246Z,10.30
2018-04-14T05:42:03.216Z,10.30
2018-04-14T05:44:29.947Z,10.30
2018-04-14T05:46:55.913Z,10.30
2018-04-14T05:49:21.942Z,10.30
2018-04-14T05:51:47.980Z,10.30
2018-04-14T05:54:13.931Z,10.30
2018-04-14T05:56:40.638Z,10.30
2018-04-14T05:59:06.584Z,10.30
2018-04-14T06:01:33.306Z,10.40
2018-04-14T06:03:59.297Z,10.30
2018-04-14T06:06:25.275Z,10.40
2018-04-14T06:08:51.979Z,10.30
2018-04-14T06:11:17.945Z,10.30
2018-04-14T06:13:43.917Z,10.40
2018-04-14T06:16:09.871Z,10.40
2018-04-14T06:18:35.849Z,10.40
2018-04-14T06:21:01.912Z,10.40
2018-04-14T06:23:27.901Z,10.40
2018-04-14T06:25:54.589Z,10.40
2018-04-14T06:28:20.570Z,10.40
2018-04-14T06:30:46.640Z,10.40
2018-04-14T06:33:12.605Z,10.50
2018-04-14T06:35:39.335Z,10.50
2018-04-14T06:38:06.043Z,10.50
2018-04-14T06:40:32.148Z,10.50
2018-04-14T06:42:58.137Z,10.50
2018-04-14T06:45:24.106Z,10.50
2018-04-14T06:47:50.066Z,10.50
2018-04-14T06:50:16.123Z,10.60
2018-04-14T06:52:42.069Z,10.60
2018-04-14T06:55:08.092Z,10.70
2018-04-14T06:57:34.114Z,10.70
2018-04-14T07:00:01.840Z,10.80
2018-04-14T07:02:27.851Z,10.90
2018-04-14T07:04:54.496Z,11.00
2018-04-14T07:07:21.459Z,11.00
2018-04-14T07:09:48.486Z,11.00
2018-04-14T07:12:14.456Z,11.10
2018-04-14T07:14:41.179Z,11.10
2018-04-14T07:17:07.905Z,11.10
2018-04-14T07:19:33.876Z,11.10
2018-04-14T07:21:59.866Z,11.10
2018-04-14T07:24:26.609Z,11.20
2018-04-14T07:26:52.568Z,11.20
2018-04-14T07:29:19.497Z,11.20
2018-04-14T07:31:45.459Z,11.20
2018-04-14T07:34:13.007Z,11.30
2018-04-14T07:36:39.905Z,11.30
2018-04-14T07:39:05.924Z,11.30
2018-04-14T07:41:33.124Z,11.40
2018-04-14T07:43:59.696Z,11.30
2018-04-14T07:46:25.679Z,11.30
2018-04-14T07:48:53.550Z,11.30
2018-04-14T07:51:20.407Z,11.30
2018-04-14T07:53:47.890Z,11.30
2018-04-14T07:56:13.859Z,11.30
2018-04-14T07:58:41.271Z,11.50
2018-04-14T08:01:08.035Z,11.50
2018-04-14T08:03:34.770Z,11.50
2018-04-14T08:06:00.749Z,11.50
2018-04-14T08:08:26.762Z,11.60
2018-04-14T08:10:52.749Z,11.60
2018-04-14T08:13:19.452Z,11.70
2018-04-14T08:15:45.499Z,11.60
2018-04-14T08:18:13.981Z,11.70
2018-04-14T08:20:40.783Z,11.70
2018-04-14T08:23:06.776Z,11.70
2018-04-14T08:25:32.802Z,11.80
2018-04-14T08:27:58.790Z,11.80
2018-04-14T08:30:24.808Z,11.80
2018-04-14T08:32:57.030Z,11.80
2018-04-14T08:35:23.037Z,11.80
2018-04-14T08:37:49.006Z,11.80
2018-04-14T08:40:15.046Z,11.80
2018-04-14T08:42:41.008Z,11.80
2018-04-14T08:45:07.029Z,11.80
2018-04-14T08:47:32.928Z,11.70
2018-04-14T08:49:58.860Z,11.80
2018-04-14T08:52:24.816Z,11.80
2018-04-14T08:54:50.762Z,11.90
2018-04-14T08:57:16.740Z,12.00
2018-04-14T08:59:43.522Z,12.00
2018-04-14T09:02:09.494Z,12.00
2018-04-14T09:04:36.194Z,12.00
2018-04-14T09:07:02.151Z,12.00
2018-04-14T09:09:28.906Z,12.20
2018-04-14T09:11:54.874Z,12.10
2018-04-14T09:14:21.731Z,12.20
2018-04-14T09:16:47.690Z,12.30
2018-04-14T09:19:13.705Z,12.30
2018-04-14T09:21:39.674Z,12.30
2018-04-14T09:24:05.633Z,12.30
2018-04-14T09:26:31.713Z,12.30
2018-04-14T09:28:58.556Z,12.30
2018-04-14T09:31:24.530Z,12.30
2018-04-14T09:33:50.483Z,12.30
2018-04-14T09:36:16.439Z,12.40
2018-04-14T09:38:42.694Z,12.40
2018-04-14T09:41:09.713Z,12.50
2018-04-14T09:43:36.410Z,12.40
2018-04-14T09:46:02.366Z,12.40
2018-04-14T09:48:29.058Z,12.50
2018-04-14T09:50:55.063Z,12.50
2018-04-14T09:53:21.032Z,12.50
2018-04-14T09:55:47.747Z,12.50
2018-04-14T09:58:13.733Z,12.50
2018-04-14T10:00:45.934Z,12.60
2018-04-14T10:03:17.878Z,12.60
2018-04-14T10:05:43.858Z,12.60
2018-04-14T10:08:09.840Z,12.60
2018-04-14T10:10:36.686Z,12.60
2018-04-14T10:13:02.585Z,12.60
2018-04-14T10:15:28.549Z,12.60
2018-04-14T10:17:54.505Z,12.50
2018-04-14T10:20:20.470Z,12.50
2018-04-14T10:22:46.428Z,12.60
2018-04-14T10:25:12.405Z,12.60
2018-04-14T10:27:38.363Z,12.70
2018-04-14T10:30:04.344Z,12.70
2018-04-14T10:32:30.313Z,12.70
2018-04-14T10:34:56.273Z,12.80
2018-04-14T10:37:22.959Z,12.70
2018-04-14T10:39:49.008Z,12.70
2018-04-14T10:42:14.913Z,12.70
2018-04-14T10:44:40.865Z,12.70
2018-04-14T10:47:07.560Z,12.70
2018-04-14T10:49:33.627Z,12.70
2018-04-14T10:52:00.813Z,12.70
2018-04-14T10:54:26.787Z,12.70
2018-04-14T10:56:53.496Z,12.80
2018-04-14T10:59:19.600Z,12.70
2018-04-14T11:01:45.559Z,12.80
2018-04-14T11:04:11.535Z,12.80
2018-04-14T11:06:37.493Z,12.80
2018-04-14T11:09:04.210Z,12.90
2018-04-14T11:11:30.197Z,12.90
2018-04-14T11:13:56.176Z,13.00
2018-04-14T11:16:22.875Z,13.10
2018-04-14T11:18:48.900Z,13.10
2018-04-14T11:21:14.990Z,13.10
2018-04-14T11:23:40.945Z,13.20
2018-04-14T11:26:06.908Z,13.20
2018-04-14T11:28:32.884Z,13.30
2018-04-14T11:30:58.861Z,13.30
2018-04-14T11:33:24.823Z,13.40
2018-04-14T11:35:50.794Z,13.40
2018-04-14T11:38:16.789Z,13.40
2018-04-14T11:40:42.838Z,13.40
2018-04-14T11:43:08.805Z,13.40
2018-04-14T11:45:34.779Z,13.30
2018-04-14T11:48:00.763Z,13.30
2018-04-14T11:50:27.855Z,13.30
2018-04-14T11:52:53.828Z,13.20
2018-04-14T11:55:19.799Z,13.10
2018-04-14T11:57:45.755Z,13.10
2018-04-14T12:00:12.533Z,13.00
2018-04-14T12:02:38.499Z,13.00
2018-04-14T12:05:05.315Z,13.00
2018-04-14T12:07:31.254Z,12.90
2018-04-14T12:09:57.307Z,13.00
2018-04-14T12:12:23.264Z,13.00
2018-04-14T12:14:49.242Z,13.10
2018-04-14T12:17:15.196Z,13.20
2018-04-14T12:19:41.192Z,13.20
2018-04-14T12:22:07.168Z,13.20
2018-04-14T12:24:33.891Z,13.30
2018-04-14T12:26:59.870Z,13.30
2018-04-14T12:29:25.901Z,13.40
2018-04-14T12:31:51.927Z,13.40
2018-04-14T12:34:17.893Z,13.50
2018-04-14T12:36:44.603Z,13.60
2018-04-14T12:39:10.671Z,13.60
2018-04-14T12:41:36.615Z,13.60
2018-04-14T12:44:02.606Z,13.60
2018-04-14T12:46:28.798Z,13.60
2018-04-14T12:48:54.775Z,13.50
2018-04-14T12:51:20.796Z,13.50
2018-04-14T12:53:46.787Z,13.50
2018-04-14T12:56:12.760Z,13.50
2018-04-14T12:58:38.723Z,13.50
2018-04-14T13:01:04.766Z,13.50
2018-04-14T13:03:30.969Z,13.40
2018-04-14T13:05:56.945Z,13.40
2018-04-14T13:08:22.927Z,13.40
2018-04-14T13:10:48.934Z,13.40
2018-04-14T13:13:14.897Z,13.40
2018-04-14T13:15:42.206Z,13.50
2018-04-14T13:18:08.235Z,13.50
2018-04-14T13:20:34.900Z,13.60
2018-04-14T13:23:02.286Z,13.60
2018-04-14T13:25:28.250Z,13.60
2018-04-14T13:27:55.661Z,13.60
2018-04-14T13:30:25.849Z,13.60
2018-04-14T13:32:57.509Z,13.50
2018-04-14T13:35:24.233Z,13.40
2018-04-14T13:37:50.240Z,13.40
2018-04-14T13:40:18.141Z,13.40
2018-04-14T13:42:44.875Z,13.50
2018-04-14T13:45:11.625Z,13.40
2018-04-14T13:47:37.679Z,13.50
2018-04-14T13:50:04.719Z,13.40
2018-04-14T13:52:30.701Z,13.40
2018-04-14T13:57:30.479Z,13.40
2018-04-14T13:59:56.587Z,13.40
2018-04-14T14:02:23.073Z,13.50
2018-04-14T14:04:52.505Z,13.70
2018-04-14T14:07:18.476Z,13.70
2018-04-14T14:09:45.265Z,13.90
2018-04-14T14:12:11.257Z,13.90
2018-04-14T14:14:37.242Z,14.00
2018-04-14T14:17:13.027Z,14.10
2018-04-14T14:19:39.006Z,14.20
2018-04-14T14:22:05.993Z,14.40
2018-04-14T14:24:31.967Z,14.50
2018-04-14T14:26:57.974Z,14.60
2018-04-14T14:29:23.947Z,14.60
2018-04-14T14:31:53.396Z,14.60
2018-04-14T14:34:22.205Z,14.60
2018-04-14T14:36:50.017Z,14.40
2018-04-14T14:39:16.027Z,14.40
2018-04-14T14:41:42.150Z,14.40
2018-04-14T14:44:08.543Z,14.40
2018-04-14T14:46:37.378Z,14.50
2018-04-14T14:49:03.417Z,14.50
2018-04-14T14:51:29.418Z,14.60
2018-04-14T14:53:55.535Z,14.60
2018-04-14T14:56:21.613Z,14.70
2018-04-14T14:58:47.843Z,14.70
2018-04-14T15:01:14.720Z,14.60
2018-04-14T15:03:40.791Z,14.40
2018-04-14T15:06:07.511Z,14.20
2018-04-14T15:08:40.493Z,14.20
2018-04-14T15:11:07.479Z,14.10
2018-04-14T15:13:33.427Z,14.10
2018-04-14T15:15:59.406Z,14.10
2018-04-14T15:18:25.386Z,14.20
2018-04-14T15:20:51.468Z,14.20
2018-04-14T15:23:17.430Z,14.20
2018-04-14T15:25:43.386Z,14.20
2018-04-14T15:28:09.348Z,14.30
2018-04-14T15:30:35.336Z,14.30
2018-04-14T15:33:01.297Z,14.20
2018-04-14T15:35:27.281Z,14.10
2018-04-14T15:37:53.258Z,14.00
2018-04-14T15:40:20.086Z,13.90
2018-04-14T15:42:46.034Z,13.90
2018-04-14T15:45:12.025Z,13.90
2018-04-14T15:47:38.791Z,13.80
2018-04-14T15:50:04.843Z,13.80
2018-04-14T15:52:30.866Z,13.70
2018-04-14T15:54:57.593Z,13.90
2018-04-14T15:57:23.567Z,13.90
2018-04-14T15:59:50.346Z,13.90
2018-04-14T16:02:16.342Z,13.80
2018-04-14T16:04:42.333Z,13.80
2018-04-14T16:07:09.035Z,13.70
2018-04-14T16:09:35.045Z,13.70
2018-04-14T16:12:02.130Z,13.70
2018-04-14T16:14:28.127Z,13.60
2018-04-14T16:16:54.085Z,13.50
2018-04-14T16:19:20.808Z,13.40
2018-04-14T16:21:47.608Z,13.40
2018-04-14T16:24:13.588Z,13.40
2018-04-14T16:26:40.313Z,13.30
2018-04-14T16:29:07.055Z,13.30
2018-04-14T16:31:33.854Z,13.30
2018-04-14T16:33:59.836Z,13.30
2018-04-14T16:36:25.807Z,13.30
2018-04-14T16:38:52.600Z,13.20
2018-04-14T16:41:18.630Z,13.10
2018-04-14T16:43:44.596Z,13.10
2018-04-14T16:46:11.316Z,13.10
2018-04-14T16:48:39.522Z,13.10
2018-04-14T16:51:07.681Z,13.10
2018-04-14T16:53:35.794Z,13.10
2018-04-14T16:56:03.165Z,13.10
2018-04-14T16:58:29.141Z,13.10
2018-04-14T17:00:56.067Z,13.10
2018-04-14T17:03:22.034Z,13.10
2018-04-14T17:05:47.995Z,13.10
2018-04-14T17:08:14.709Z,13.00
2018-04-14T17:10:40.758Z,13.00
2018-04-14T17:13:07.651Z,13.00
2018-04-14T17:15:36.134Z,13.00
2018-04-14T17:18:02.168Z,12.90
2018-04-14T17:20:28.755Z,12.90
2018-04-14T17:23:04.914Z,12.80
2018-04-14T17:25:31.623Z,12.80
2018-04-14T17:27:58.322Z,12.80
2018-04-14T17:33:05.629Z,12.70
2018-04-14T17:35:31.620Z,12.70
2018-04-14T17:37:57.611Z,12.70
2018-04-14T17:40:23.604Z,12.70
2018-04-14T17:42:50.311Z,12.60
2018-04-14T17:45:16.266Z,12.60
2018-04-14T17:47:42.960Z,12.60
2018-04-14T17:50:09.977Z,12.60
2018-04-14T17:52:35.944Z,12.60
2018-04-14T17:55:02.721Z,12.60
2018-04-14T17:57:28.714Z,12.50
2018-04-14T17:59:55.419Z,12.50
2018-04-14T18:02:21.403Z,12.50
2018-04-14T18:04:47.571Z,12.50
2018-04-14T18:07:17.351Z,12.50
2018-04-14T18:09:43.353Z,12.40
2018-04-14T18:12:09.324Z,12.40
2018-04-14T18:14:36.007Z,12.30
2018-04-14T18:17:03.014Z,12.30
2018-04-14T18:19:29.082Z,12.30
2018-04-14T18:21:55.043Z,12.20
2018-04-14T18:24:21.744Z,12.20
2018-04-14T18:26:47.728Z,12.20
2018-04-14T18:29:13.753Z,12.20
2018-04-14T18:31:39.715Z,12.20
2018-04-14T18:34:05.685Z,12.10
2018-04-14T18:36:31.651Z,12.00
2018-04-14T18:38:57.643Z,12.00
2018-04-14T18:41:24.469Z,11.90
2018-04-14T18:43:50.442Z,11.90
2018-04-14T18:46:16.466Z,11.80
2018-04-14T18:48:44.037Z,11.80
2018-04-14T18:51:10.843Z,11.80
2018-04-14T18:53:36.818Z,11.80
2018-04-14T18:56:02.820Z,11.80
2018-04-14T18:58:28.788Z,11.80
2018-04-14T19:00:54.870Z,11.80
2018-04-14T19:03:20.824Z,11.70
2018-04-14T19:05:46.775Z,11.70
2018-04-14T19:08:13.506Z,11.70
2018-04-14T19:10:39.584Z,11.70
2018-04-14T19:13:07.360Z,11.70
2018-04-14T19:15:33.317Z,11.70
2018-04-14T19:18:00.205Z,11.70
2018-04-14T19:20:26.896Z,11.70
2018-04-14T19:22:53.607Z,11.70
2018-04-14T19:25:19.643Z,11.70
2018-04-14T19:27:46.379Z,11.60
2018-04-14T19:30:13.159Z,11.50
2018-04-14T19:32:39.890Z,11.50
2018-04-14T19:35:07.667Z,11.50
2018-04-14T19:37:33.646Z,11.50
2018-04-14T19:40:01.377Z,11.40
2018-04-14T19:42:28.038Z,11.40
2018-04-14T19:44:54.835Z,11.30
2018-04-14T19:47:20.803Z,11.30
2018-04-14T19:49:47.343Z,11.30
2018-04-14T19:52:13.337Z,11.20
2018-04-14T19:54:40.058Z,11.30
2018-04-14T19:57:06.020Z,11.20
2018-04-14T19:59:32.020Z,11.30
2018-04-14T20:01:58.727Z,11.30
2018-04-14T20:04:24.693Z,11.30
2018-04-14T20:06:50.718Z,11.30
2018-04-14T20:09:16.686Z,11.30
2018-04-14T20:11:45.025Z,11.20
2018-04-14T20:16:42.542Z,11.20
2018-04-14T20:19:09.285Z,11.20
2018-04-14T20:21:36.985Z,11.20
2018-04-14T20:24:03.707Z,11.20
2018-04-14T20:26:29.724Z,11.20
2018-04-14T20:28:55.930Z,11.20
2018-04-14T20:31:23.685Z,11.20
2018-04-14T20:33:50.380Z,11.20
2018-04-14T20:36:17.334Z,11.20
2018-04-14T20:38:43.349Z,11.20
2018-04-14T20:41:09.328Z,11.10
2018-04-14T20:43:35.333Z,11.10
2018-04-14T20:46:01.906Z,11.00
2018-04-14T20:48:27.929Z,11.10
2018-04-14T20:50:53.919Z,11.10
2018-04-14T20:53:20.637Z,11.00
2018-04-14T20:55:47.376Z,11.00
2018-04-14T20:58:14.609Z,11.00
2018-04-14T21:00:41.326Z,11.00
2018-04-14T21:03:07.279Z,11.00
2018-04-14T21:05:33.470Z,11.00
2018-04-14T21:07:59.443Z,11.00
2018-04-14T21:10:25.406Z,10.90
2018-04-14T21:12:51.355Z,10.90
2018-04-14T21:15:18.048Z,10.90
2018-04-14T21:17:46.860Z,10.90
2018-04-14T21:20:13.607Z,10.90
2018-04-14T21:22:40.340Z,10.90
2018-04-14T21:25:07.109Z,10.80
2018-04-14T21:27:33.198Z,10.80
2018-04-14T21:29:59.883Z,10.80
2018-04-14T21:32:25.848Z,10.80
2018-04-14T21:34:59.657Z,10.70
2018-04-14T21:37:26.437Z,10.70
2018-04-14T21:39:52.492Z,10.70
2018-04-14T21:42:18.528Z,10.70
2018-04-14T21:47:25.423Z,10.70
2018-04-14T21:49:52.203Z,10.80
2018-04-14T21:52:19.132Z,10.80
2018-04-14T21:54:45.550Z,10.80
2018-04-14T21:57:11.514Z,10.80
2018-04-14T21:59:38.271Z,10.90
2018-04-14T22:02:04.992Z,10.90
2018-04-14T22:04:30.957Z,10.90
2018-04-14T22:06:56.957Z,10.90
2018-04-14T22:09:23.653Z,10.90
2018-04-14T22:11:49.615Z,11.00
2018-04-14T22:14:28.715Z,11.00
2018-04-14T22:16:54.689Z,11.00
2018-04-14T22:19:20.667Z,11.00
2018-04-14T22:21:47.430Z,11.00
2018-04-14T22:24:13.396Z,11.00
2018-04-14T22:26:39.418Z,10.90
2018-04-14T22:29:05.502Z,10.80
2018-04-14T22:31:31.480Z,10.80
2018-04-14T22:33:58.227Z,10.80
2018-04-14T22:36:24.939Z,10.80
2018-04-14T22:38:50.909Z,10.80
2018-04-14T22:41:16.875Z,10.80
2018-04-14T22:43:42.837Z,10.80
2018-04-14T22:46:08.778Z,10.70
2018-04-14T22:48:34.741Z,10.70
2018-04-14T22:51:01.436Z,10.70
2018-04-14T22:53:28.041Z,10.70
2018-04-14T22:55:54.015Z,10.70
2018-04-14T22:58:20.620Z,10.60
2018-04-14T23:00:46.635Z,10.60
2018-04-14T23:03:12.605Z,10.60
2018-04-14T23:05:39.302Z,10.60
2018-04-14T23:08:05.286Z,10.60
2018-04-14T23:10:31.303Z,10.60
2018-04-14T23:12:57.291Z,10.60
2018-04-14T23:15:23.305Z,10.60
2018-04-14T23:17:49.261Z,10.70
2018-04-14T23:20:15.217Z,10.70
2018-04-14T23:22:41.190Z,10.70
2018-04-14T23:25:07.153Z,10.70
2018-04-14T23:27:33.134Z,10.60
2018-04-14T23:29:59.154Z,10.60
2018-04-14T23:32:25.116Z,10.60
2018-04-14T23:34:51.098Z,10.60
2018-04-14T23:37:17.073Z,10.60
2018-04-14T23:39:43.051Z,10.60
2018-04-14T23:42:09.003Z,10.60
2018-04-14T23:44:34.965Z,10.60
2018-04-14T23:47:00.913Z,10.50
2018-04-14T23:49:26.914Z,10.50
2018-04-14T23:51:52.868Z,10.60
2018-04-14T23:54:18.854Z,10.60
2018-04-14T23:56:44.816Z,10.60
2018-04-14T23:59:10.898Z,10.60
